sensor_id;sensor_type;location;lat;lon;timestamp;pressure;altitude;pressure_sealevel;temperature
54608;BMP280;40506;37.576;-122.034;2022-07-19T00:00:51;101383.69;;;28.56
54608;BMP280;40506;37.576;-122.034;2022-07-19T00:02:53;101386.69;;;28.30
54608;BMP280;40506;37.576;-122.034;2022-07-19T00:04:55;101374.97;;;28.33
54608;BMP280;40506;37.576;-122.034;2022-07-19T00:06:56;101380.88;;;28.42
54608;BMP280;40506;37.576;-122.034;2022-07-19T00:08:58;101382.81;;;28.42
54608;BMP280;40506;37.576;-122.034;2022-07-19T00:10:59;101373.72;;;28.20
54608;BMP280;40506;37.576;-122.034;2022-07-19T00:13:00;101372.41;;;28.00
54608;BMP280;40506;37.576;-122.034;2022-07-19T00:15:03;101380.22;;;28.05
54608;BMP280;40506;37.576;-122.034;2022-07-19T00:17:04;101370.78;;;27.95
54608;BMP280;40506;37.576;-122.034;2022-07-19T00:19:06;101388.22;;;28.27
54608;BMP280;40506;37.576;-122.034;2022-07-19T00:21:07;101370.97;;;28.20
54608;BMP280;40506;37.576;-122.034;2022-07-19T00:23:08;101371.22;;;28.04
54608;BMP280;40506;37.576;-122.034;2022-07-19T00:25:09;101389.94;;;27.95
54608;BMP280;40506;37.576;-122.034;2022-07-19T00:27:11;101384.97;;;28.11
54608;BMP280;40506;37.576;-122.034;2022-07-19T00:29:12;101388.44;;;28.05
54608;BMP280;40506;37.576;-122.034;2022-07-19T00:31:14;101384.09;;;27.97
54608;BMP280;40506;37.576;-122.034;2022-07-19T00:33:15;101381.69;;;27.92
54608;BMP280;40506;37.576;-122.034;2022-07-19T00:35:16;101380.63;;;28.07
54608;BMP280;40506;37.576;-122.034;2022-07-19T00:37:18;101372.63;;;27.81
54608;BMP280;40506;37.576;-122.034;2022-07-19T00:39:19;101378.16;;;27.44
54608;BMP280;40506;37.576;-122.034;2022-07-19T00:41:21;101372.63;;;27.40
54608;BMP280;40506;37.576;-122.034;2022-07-19T00:43:22;101365.63;;;27.43
54608;BMP280;40506;37.576;-122.034;2022-07-19T00:45:23;101395.19;;;27.67
54608;BMP280;40506;37.576;-122.034;2022-07-19T00:47:25;101368.50;;;27.20
54608;BMP280;40506;37.576;-122.034;2022-07-19T00:49:26;101381.75;;;27.18
54608;BMP280;40506;37.576;-122.034;2022-07-19T00:51:27;101386.75;;;27.09
54608;BMP280;40506;37.576;-122.034;2022-07-19T00:53:29;101399.72;;;27.16
54608;BMP280;40506;37.576;-122.034;2022-07-19T00:55:33;101394.28;;;27.19
54608;BMP280;40506;37.576;-122.034;2022-07-19T00:57:36;101400.09;;;27.14
54608;BMP280;40506;37.576;-122.034;2022-07-19T00:59:39;101398.28;;;27.25
54608;BMP280;40506;37.576;-122.034;2022-07-19T01:01:40;101400.00;;;27.40
54608;BMP280;40506;37.576;-122.034;2022-07-19T01:03:42;101410.34;;;27.24
54608;BMP280;40506;37.576;-122.034;2022-07-19T01:05:45;101409.31;;;27.02
54608;BMP280;40506;37.576;-122.034;2022-07-19T01:07:47;101409.25;;;26.99
54608;BMP280;40506;37.576;-122.034;2022-07-19T01:09:49;101393.56;;;26.92
54608;BMP280;40506;37.576;-122.034;2022-07-19T01:11:51;101402.31;;;27.05
54608;BMP280;40506;37.576;-122.034;2022-07-19T01:13:53;101392.44;;;26.97
54608;BMP280;40506;37.576;-122.034;2022-07-19T01:15:54;101350.63;;;26.63
54608;BMP280;40506;37.576;-122.034;2022-07-19T01:17:56;101415.09;;;26.94
54608;BMP280;40506;37.576;-122.034;2022-07-19T01:19:58;101390.72;;;26.85
54608;BMP280;40506;37.576;-122.034;2022-07-19T01:21:59;101411.97;;;26.69
54608;BMP280;40506;37.576;-122.034;2022-07-19T01:24:00;101392.72;;;26.88
54608;BMP280;40506;37.576;-122.034;2022-07-19T01:26:02;101402.09;;;27.21
54608;BMP280;40506;37.576;-122.034;2022-07-19T01:28:05;101408.53;;;27.02
54608;BMP280;40506;37.576;-122.034;2022-07-19T01:30:14;101409.56;;;26.64
54608;BMP280;40506;37.576;-122.034;2022-07-19T01:32:16;101422.78;;;26.59
54608;BMP280;40506;37.576;-122.034;2022-07-19T01:34:17;101408.59;;;26.50
54608;BMP280;40506;37.576;-122.034;2022-07-19T01:36:18;101420.78;;;26.56
54608;BMP280;40506;37.576;-122.034;2022-07-19T01:38:20;101411.25;;;26.42
54608;BMP280;40506;37.576;-122.034;2022-07-19T01:40:22;101422.16;;;26.69
54608;BMP280;40506;37.576;-122.034;2022-07-19T01:42:23;101418.69;;;26.72
54608;BMP280;40506;37.576;-122.034;2022-07-19T01:44:25;101397.19;;;26.44
54608;BMP280;40506;37.576;-122.034;2022-07-19T01:46:26;101409.81;;;26.52
54608;BMP280;40506;37.576;-122.034;2022-07-19T01:48:28;101435.47;;;26.48
54608;BMP280;40506;37.576;-122.034;2022-07-19T01:50:29;101437.13;;;26.52
54608;BMP280;40506;37.576;-122.034;2022-07-19T01:52:30;101421.56;;;26.56
54608;BMP280;40506;37.576;-122.034;2022-07-19T01:54:31;101443.69;;;26.74
54608;BMP280;40506;37.576;-122.034;2022-07-19T01:56:33;101447.56;;;26.73
54608;BMP280;40506;37.576;-122.034;2022-07-19T01:58:34;101439.19;;;26.59
54608;BMP280;40506;37.576;-122.034;2022-07-19T02:00:35;101443.22;;;26.42
54608;BMP280;40506;37.576;-122.034;2022-07-19T02:02:36;101447.88;;;26.41
54608;BMP280;40506;37.576;-122.034;2022-07-19T02:04:38;101428.81;;;26.45
54608;BMP280;40506;37.576;-122.034;2022-07-19T02:06:39;101431.31;;;26.31
54608;BMP280;40506;37.576;-122.034;2022-07-19T02:08:40;101452.13;;;26.39
54608;BMP280;40506;37.576;-122.034;2022-07-19T02:10:42;101457.94;;;26.37
54608;BMP280;40506;37.576;-122.034;2022-07-19T02:12:43;101440.84;;;26.40
54608;BMP280;40506;37.576;-122.034;2022-07-19T02:14:45;101454.56;;;26.70
54608;BMP280;40506;37.576;-122.034;2022-07-19T02:16:46;101456.75;;;26.61
54608;BMP280;40506;37.576;-122.034;2022-07-19T02:18:47;101428.41;;;26.46
54608;BMP280;40506;37.576;-122.034;2022-07-19T02:20:48;101410.03;;;26.70
54608;BMP280;40506;37.576;-122.034;2022-07-19T02:22:50;101427.03;;;26.56
54608;BMP280;40506;37.576;-122.034;2022-07-19T02:24:51;101424.44;;;26.40
54608;BMP280;40506;37.576;-122.034;2022-07-19T02:26:52;101429.16;;;26.43
54608;BMP280;40506;37.576;-122.034;2022-07-19T02:28:53;101445.34;;;26.78
54608;BMP280;40506;37.576;-122.034;2022-07-19T02:30:55;101439.88;;;26.78
54608;BMP280;40506;37.576;-122.034;2022-07-19T02:32:56;101447.38;;;27.18
54608;BMP280;40506;37.576;-122.034;2022-07-19T02:34:57;101420.16;;;27.25
54608;BMP280;40506;37.576;-122.034;2022-07-19T02:36:58;101446.84;;;27.39
54608;BMP280;40506;37.576;-122.034;2022-07-19T02:39:00;101444.44;;;27.30
54608;BMP280;40506;37.576;-122.034;2022-07-19T02:41:01;101432.81;;;27.40
54608;BMP280;40506;37.576;-122.034;2022-07-19T02:43:02;101431.91;;;27.33
54608;BMP280;40506;37.576;-122.034;2022-07-19T02:45:04;101425.97;;;27.24
54608;BMP280;40506;37.576;-122.034;2022-07-19T02:47:05;101445.28;;;27.38
54608;BMP280;40506;37.576;-122.034;2022-07-19T02:49:07;101446.09;;;27.42
54608;BMP280;40506;37.576;-122.034;2022-07-19T02:51:11;101438.63;;;27.39
54608;BMP280;40506;37.576;-122.034;2022-07-19T02:53:13;101436.44;;;27.18
54608;BMP280;40506;37.576;-122.034;2022-07-19T02:55:14;101444.84;;;27.36
54608;BMP280;40506;37.576;-122.034;2022-07-19T02:57:15;101446.81;;;27.72
54608;BMP280;40506;37.576;-122.034;2022-07-19T02:59:16;101432.47;;;27.86
54608;BMP280;40506;37.576;-122.034;2022-07-19T03:01:18;101444.38;;;28.00
54608;BMP280;40506;37.576;-122.034;2022-07-19T03:03:19;101388.56;;;27.72
54608;BMP280;40506;37.576;-122.034;2022-07-19T03:05:38;101442.03;;;28.06
54608;BMP280;40506;37.576;-122.034;2022-07-19T03:07:40;101447.53;;;28.06
54608;BMP280;40506;37.576;-122.034;2022-07-19T03:09:41;101455.78;;;28.13
54608;BMP280;40506;37.576;-122.034;2022-07-19T03:11:42;101433.34;;;27.93
54608;BMP280;40506;37.576;-122.034;2022-07-19T03:13:43;101437.19;;;27.85
54608;BMP280;40506;37.576;-122.034;2022-07-19T03:15:45;101469.28;;;27.92
54608;BMP280;40506;37.576;-122.034;2022-07-19T03:17:46;101472.03;;;27.92
54608;BMP280;40506;37.576;-122.034;2022-07-19T03:19:47;101475.69;;;28.06
54608;BMP280;40506;37.576;-122.034;2022-07-19T03:21:49;101461.56;;;27.97
54608;BMP280;40506;37.576;-122.034;2022-07-19T03:23:50;101468.22;;;28.03
54608;BMP280;40506;37.576;-122.034;2022-07-19T03:25:52;101473.75;;;28.10
54608;BMP280;40506;37.576;-122.034;2022-07-19T03:27:53;101430.50;;;27.83
54608;BMP280;40506;37.576;-122.034;2022-07-19T03:29:54;101483.53;;;28.08
54608;BMP280;40506;37.576;-122.034;2022-07-19T03:31:57;101463.50;;;28.04
54608;BMP280;40506;37.576;-122.034;2022-07-19T03:33:58;101483.59;;;28.15
54608;BMP280;40506;37.576;-122.034;2022-07-19T03:35:59;101465.09;;;28.01
54608;BMP280;40506;37.576;-122.034;2022-07-19T03:38:00;101467.84;;;28.01
54608;BMP280;40506;37.576;-122.034;2022-07-19T03:40:03;101481.94;;;28.07
54608;BMP280;40506;37.576;-122.034;2022-07-19T03:42:04;101485.91;;;28.13
54608;BMP280;40506;37.576;-122.034;2022-07-19T03:44:05;101484.31;;;28.08
54608;BMP280;40506;37.576;-122.034;2022-07-19T03:46:06;101489.41;;;28.10
54608;BMP280;40506;37.576;-122.034;2022-07-19T03:48:08;101491.38;;;28.09
54608;BMP280;40506;37.576;-122.034;2022-07-19T03:50:09;101472.13;;;27.99
54608;BMP280;40506;37.576;-122.034;2022-07-19T03:52:10;101476.09;;;28.08
54608;BMP280;40506;37.576;-122.034;2022-07-19T03:54:12;101474.44;;;27.97
54608;BMP280;40506;37.576;-122.034;2022-07-19T03:56:14;101489.38;;;28.03
54608;BMP280;40506;37.576;-122.034;2022-07-19T03:58:15;101488.88;;;27.94
54608;BMP280;40506;37.576;-122.034;2022-07-19T04:00:16;101460.97;;;27.78
54608;BMP280;40506;37.576;-122.034;2022-07-19T04:02:18;101478.69;;;27.91
54608;BMP280;40506;37.576;-122.034;2022-07-19T04:04:19;101492.81;;;27.96
54608;BMP280;40506;37.576;-122.034;2022-07-19T04:06:20;101499.53;;;28.02
54608;BMP280;40506;37.576;-122.034;2022-07-19T04:08:21;101507.69;;;27.99
54608;BMP280;40506;37.576;-122.034;2022-07-19T04:10:23;101508.50;;;27.99
54608;BMP280;40506;37.576;-122.034;2022-07-19T04:12:24;101469.00;;;27.63
54608;BMP280;40506;37.576;-122.034;2022-07-19T04:14:25;101507.66;;;27.95
54608;BMP280;40506;37.576;-122.034;2022-07-19T04:16:26;101493.09;;;27.84
54608;BMP280;40506;37.576;-122.034;2022-07-19T04:18:28;101518.59;;;27.95
54608;BMP280;40506;37.576;-122.034;2022-07-19T04:22:48;101516.56;;;27.89
54608;BMP280;40506;37.576;-122.034;2022-07-19T04:24:50;101516.16;;;27.87
54608;BMP280;40506;37.576;-122.034;2022-07-19T04:26:52;101510.28;;;27.81
54608;BMP280;40506;37.576;-122.034;2022-07-19T04:28:53;101511.38;;;27.77
54608;BMP280;40506;37.576;-122.034;2022-07-19T04:30:54;101501.84;;;27.63
54608;BMP280;40506;37.576;-122.034;2022-07-19T04:32:55;101507.78;;;27.69
54608;BMP280;40506;37.576;-122.034;2022-07-19T04:34:56;101533.72;;;27.82
54608;BMP280;40506;37.576;-122.034;2022-07-19T04:36:58;101530.81;;;27.68
54608;BMP280;40506;37.576;-122.034;2022-07-19T04:38:59;101518.19;;;26.25
54608;BMP280;40506;37.576;-122.034;2022-07-19T04:41:01;101529.97;;;25.68
54608;BMP280;40506;37.576;-122.034;2022-07-19T04:43:02;101512.09;;;24.98
54608;BMP280;40506;37.576;-122.034;2022-07-19T04:45:04;101537.16;;;24.72
54608;BMP280;40506;37.576;-122.034;2022-07-19T04:47:05;101470.72;;;23.86
54608;BMP280;40506;37.576;-122.034;2022-07-19T04:49:07;101535.44;;;23.81
54608;BMP280;40506;37.576;-122.034;2022-07-19T04:51:08;101537.09;;;23.97
54608;BMP280;40506;37.576;-122.034;2022-07-19T04:53:09;101525.19;;;24.45
54608;BMP280;40506;37.576;-122.034;2022-07-19T04:55:11;101543.47;;;24.76
54608;BMP280;40506;37.576;-122.034;2022-07-19T04:57:12;101471.25;;;24.51
54608;BMP280;40506;37.576;-122.034;2022-07-19T04:59:14;101537.28;;;25.10
54608;BMP280;40506;37.576;-122.034;2022-07-19T05:01:15;101541.16;;;25.44
54608;BMP280;40506;37.576;-122.034;2022-07-19T05:03:17;101541.44;;;25.39
54608;BMP280;40506;37.576;-122.034;2022-07-19T05:05:18;101541.19;;;25.28
54608;BMP280;40506;37.576;-122.034;2022-07-19T05:07:19;101530.88;;;25.38
54608;BMP280;40506;37.576;-122.034;2022-07-19T05:09:21;101563.34;;;25.62
54608;BMP280;40506;37.576;-122.034;2022-07-19T05:11:22;101547.03;;;25.27
54608;BMP280;40506;37.576;-122.034;2022-07-19T05:13:24;101570.94;;;25.34
54608;BMP280;40506;37.576;-122.034;2022-07-19T05:15:25;101578.66;;;25.32
54608;BMP280;40506;37.576;-122.034;2022-07-19T05:17:26;101564.38;;;25.03
54608;BMP280;40506;37.576;-122.034;2022-07-19T05:19:28;101562.34;;;24.85
54608;BMP280;40506;37.576;-122.034;2022-07-19T05:21:29;101558.03;;;24.68
54608;BMP280;40506;37.576;-122.034;2022-07-19T05:23:30;101577.56;;;25.17
54608;BMP280;40506;37.576;-122.034;2022-07-19T05:25:31;101569.78;;;25.19
54608;BMP280;40506;37.576;-122.034;2022-07-19T05:27:32;101588.06;;;25.18
54608;BMP280;40506;37.576;-122.034;2022-07-19T05:29:34;101588.16;;;25.22
54608;BMP280;40506;37.576;-122.034;2022-07-19T05:31:35;101529.94;;;24.64
54608;BMP280;40506;37.576;-122.034;2022-07-19T05:33:36;101596.00;;;25.23
54608;BMP280;40506;37.576;-122.034;2022-07-19T05:35:37;101597.06;;;25.03
54608;BMP280;40506;37.576;-122.034;2022-07-19T05:37:39;101583.69;;;24.67
54608;BMP280;40506;37.576;-122.034;2022-07-19T05:39:40;101594.53;;;24.36
54608;BMP280;40506;37.576;-122.034;2022-07-19T05:41:41;101592.41;;;24.29
54608;BMP280;40506;37.576;-122.034;2022-07-19T05:43:43;101584.88;;;24.38
54608;BMP280;40506;37.576;-122.034;2022-07-19T05:45:44;101591.84;;;24.51
54608;BMP280;40506;37.576;-122.034;2022-07-19T05:47:45;101580.47;;;24.34
54608;BMP280;40506;37.576;-122.034;2022-07-19T05:49:47;101605.16;;;24.13
54608;BMP280;40506;37.576;-122.034;2022-07-19T05:51:48;101591.13;;;24.11
54608;BMP280;40506;37.576;-122.034;2022-07-19T05:53:49;101592.44;;;23.89
54608;BMP280;40506;37.576;-122.034;2022-07-19T05:56:08;101604.94;;;23.42
54608;BMP280;40506;37.576;-122.034;2022-07-19T05:58:10;101591.09;;;23.23
54608;BMP280;40506;37.576;-122.034;2022-07-19T06:00:11;101598.13;;;22.99
54608;BMP280;40506;37.576;-122.034;2022-07-19T06:02:15;101593.50;;;23.00
54608;BMP280;40506;37.576;-122.034;2022-07-19T06:04:17;101570.06;;;23.08
54608;BMP280;40506;37.576;-122.034;2022-07-19T06:06:20;101586.94;;;23.37
54608;BMP280;40506;37.576;-122.034;2022-07-19T06:08:21;101575.03;;;23.06
54608;BMP280;40506;37.576;-122.034;2022-07-19T06:10:23;101572.31;;;23.06
54608;BMP280;40506;37.576;-122.034;2022-07-19T06:12:24;101563.25;;;23.50
54608;BMP280;40506;37.576;-122.034;2022-07-19T06:14:25;101564.16;;;23.66
54608;BMP280;40506;37.576;-122.034;2022-07-19T06:16:27;101555.31;;;24.09
54608;BMP280;40506;37.576;-122.034;2022-07-19T06:18:28;101597.16;;;24.04
54608;BMP280;40506;37.576;-122.034;2022-07-19T06:20:35;101585.66;;;23.83
54608;BMP280;40506;37.576;-122.034;2022-07-19T06:22:37;101591.13;;;24.11
54608;BMP280;40506;37.576;-122.034;2022-07-19T06:24:38;101579.72;;;24.21
54608;BMP280;40506;37.576;-122.034;2022-07-19T06:26:39;101566.72;;;24.14
54608;BMP280;40506;37.576;-122.034;2022-07-19T06:28:41;101584.16;;;24.26
54608;BMP280;40506;37.576;-122.034;2022-07-19T06:30:42;101568.22;;;24.71
54608;BMP280;40506;37.576;-122.034;2022-07-19T06:32:43;101571.47;;;25.23
54608;BMP280;40506;37.576;-122.034;2022-07-19T06:34:44;101560.94;;;25.41
54608;BMP280;40506;37.576;-122.034;2022-07-19T06:36:45;101579.72;;;25.62
54608;BMP280;40506;37.576;-122.034;2022-07-19T06:38:47;101574.44;;;25.69
54608;BMP280;40506;37.576;-122.034;2022-07-19T06:40:50;101550.78;;;25.57
54608;BMP280;40506;37.576;-122.034;2022-07-19T06:42:51;101578.50;;;25.78
54608;BMP280;40506;37.576;-122.034;2022-07-19T06:44:52;101566.69;;;25.71
54608;BMP280;40506;37.576;-122.034;2022-07-19T06:46:53;101571.53;;;25.81
54608;BMP280;40506;37.576;-122.034;2022-07-19T06:48:54;101578.88;;;25.96
54608;BMP280;40506;37.576;-122.034;2022-07-19T06:50:56;101588.34;;;26.02
54608;BMP280;40506;37.576;-122.034;2022-07-19T06:52:57;101583.78;;;26.06
54608;BMP280;40506;37.576;-122.034;2022-07-19T06:54:58;101588.09;;;26.07
54608;BMP280;40506;37.576;-122.034;2022-07-19T06:56:59;101587.34;;;26.10
54608;BMP280;40506;37.576;-122.034;2022-07-19T06:59:01;101586.56;;;26.10
54608;BMP280;40506;37.576;-122.034;2022-07-19T07:01:02;101592.09;;;26.13
54608;BMP280;40506;37.576;-122.034;2022-07-19T07:03:04;101561.72;;;25.96
54608;BMP280;40506;37.576;-122.034;2022-07-19T07:05:07;101568.19;;;26.07
54608;BMP280;40506;37.576;-122.034;2022-07-19T07:07:08;101585.44;;;26.14
54608;BMP280;40506;37.576;-122.034;2022-07-19T07:09:10;101585.53;;;26.18
54608;BMP280;40506;37.576;-122.034;2022-07-19T07:11:11;101582.31;;;26.12
54608;BMP280;40506;37.576;-122.034;2022-07-19T07:13:12;101591.78;;;26.18
54608;BMP280;40506;37.576;-122.034;2022-07-19T07:15:15;101579.44;;;26.24
54608;BMP280;40506;37.576;-122.034;2022-07-19T07:17:16;101589.94;;;26.22
54608;BMP280;40506;37.576;-122.034;2022-07-19T07:19:17;101571.38;;;26.12
54608;BMP280;40506;37.576;-122.034;2022-07-19T07:21:18;101585.19;;;26.19
54608;BMP280;40506;37.576;-122.034;2022-07-19T07:23:20;101594.97;;;26.20
54608;BMP280;40506;37.576;-122.034;2022-07-19T07:25:22;101571.97;;;26.02
54608;BMP280;40506;37.576;-122.034;2022-07-19T07:27:24;101585.53;;;26.18
54608;BMP280;40506;37.576;-122.034;2022-07-19T07:29:25;101562.09;;;25.94
54608;BMP280;40506;37.576;-122.034;2022-07-19T07:31:26;101580.25;;;26.06
54608;BMP280;40506;37.576;-122.034;2022-07-19T07:33:27;101588.13;;;26.11
54608;BMP280;40506;37.576;-122.034;2022-07-19T07:35:29;101592.09;;;26.13
54608;BMP280;40506;37.576;-122.034;2022-07-19T07:37:30;101582.22;;;26.09
54608;BMP280;40506;37.576;-122.034;2022-07-19T07:39:31;101599.56;;;26.16
54608;BMP280;40506;37.576;-122.034;2022-07-19T07:41:32;101576.66;;;26.02
54608;BMP280;40506;37.576;-122.034;2022-07-19T07:43:35;101579.81;;;26.04
54608;BMP280;40506;37.576;-122.034;2022-07-19T07:45:37;101590.03;;;26.07
54608;BMP280;40506;37.576;-122.034;2022-07-19T07:47:38;101586.09;;;26.08
54608;BMP280;40506;37.576;-122.034;2022-07-19T07:49:39;101594.19;;;26.20
54608;BMP280;40506;37.576;-122.034;2022-07-19T07:51:41;101588.72;;;26.20
54608;BMP280;40506;37.576;-122.034;2022-07-19T07:53:42;101577.97;;;26.11
54608;BMP280;40506;37.576;-122.034;2022-07-19T07:55:43;101599.72;;;26.23
54608;BMP280;40506;37.576;-122.034;2022-07-19T07:57:45;101602.78;;;26.22
54608;BMP280;40506;37.576;-122.034;2022-07-19T07:59:46;101598.91;;;26.23
54608;BMP280;40506;37.576;-122.034;2022-07-19T08:01:47;101598.91;;;26.23
54608;BMP280;40506;37.576;-122.034;2022-07-19T08:03:48;101588.63;;;26.16
54608;BMP280;40506;37.576;-122.034;2022-07-19T08:05:50;101590.19;;;26.17
54608;BMP280;40506;37.576;-122.034;2022-07-19T08:07:51;101592.25;;;26.20
54608;BMP280;40506;37.576;-122.034;2022-07-19T08:09:52;101600.44;;;26.20
54608;BMP280;40506;37.576;-122.034;2022-07-19T08:11:53;101597.25;;;26.18
54608;BMP280;40506;37.576;-122.034;2022-07-19T08:13:55;101540.38;;;25.82
54608;BMP280;40506;37.576;-122.034;2022-07-19T08:15:56;101564.81;;;25.94
54608;BMP280;40506;37.576;-122.034;2022-07-19T08:17:57;101595.25;;;26.15
54608;BMP280;40506;37.576;-122.034;2022-07-19T08:19:58;101583.31;;;26.04
54608;BMP280;40506;37.576;-122.034;2022-07-19T08:22:00;101604.22;;;26.16
54608;BMP280;40506;37.576;-122.034;2022-07-19T08:24:01;101603.81;;;26.14
54608;BMP280;40506;37.576;-122.034;2022-07-19T08:26:02;101597.53;;;26.13
54608;BMP280;40506;37.576;-122.034;2022-07-19T08:28:04;101579.28;;;25.98
54608;BMP280;40506;37.576;-122.034;2022-07-19T08:30:06;101570.25;;;25.94
54608;BMP280;40506;37.576;-122.034;2022-07-19T08:32:07;101592.22;;;26.01
54608;BMP280;40506;37.576;-122.034;2022-07-19T08:34:08;101582.75;;;25.95
54608;BMP280;40506;37.576;-122.034;2022-07-19T08:36:10;101573.34;;;25.93
54608;BMP280;40506;37.576;-122.034;2022-07-19T08:38:11;101573.28;;;25.89
54608;BMP280;40506;37.576;-122.034;2022-07-19T08:40:13;101578.44;;;25.94
54608;BMP280;40506;37.576;-122.034;2022-07-19T08:42:19;101583.53;;;25.96
54608;BMP280;40506;37.576;-122.034;2022-07-19T08:44:21;101578.00;;;25.92
54608;BMP280;40506;37.576;-122.034;2022-07-19T08:46:23;101556.25;;;25.76
54608;BMP280;40506;37.576;-122.034;2022-07-19T08:48:24;101592.53;;;25.96
54608;BMP280;40506;37.576;-122.034;2022-07-19T08:52:46;101556.59;;;25.75
54608;BMP280;40506;37.576;-122.034;2022-07-19T08:54:48;101589.28;;;25.91
54608;BMP280;40506;37.576;-122.034;2022-07-19T08:56:49;101580.25;;;25.87
54608;BMP280;40506;37.576;-122.034;2022-07-19T08:59:09;101588.19;;;25.95
54608;BMP280;40506;37.576;-122.034;2022-07-19T09:01:10;101591.81;;;25.99
54608;BMP280;40506;37.576;-122.034;2022-07-19T09:03:12;101567.25;;;25.80
54608;BMP280;40506;37.576;-122.034;2022-07-19T09:05:15;101588.06;;;25.88
54608;BMP280;40506;37.576;-122.034;2022-07-19T09:07:18;101575.84;;;25.82
54608;BMP280;40506;37.576;-122.034;2022-07-19T09:09:30;101576.31;;;25.84
54608;BMP280;40506;37.576;-122.034;2022-07-19T09:11:40;101577.00;;;25.81
54608;BMP280;40506;37.576;-122.034;2022-07-19T09:13:49;101594.38;;;25.92
54608;BMP280;40506;37.576;-122.034;2022-07-19T09:15:53;101587.28;;;25.88
54608;BMP280;40506;37.576;-122.034;2022-07-19T09:18:11;101583.00;;;25.87
54608;BMP280;40506;37.576;-122.034;2022-07-19T09:20:25;101568.38;;;25.79
54608;BMP280;40506;37.576;-122.034;2022-07-19T09:22:27;101574.72;;;25.83
54608;BMP280;40506;37.576;-122.034;2022-07-19T09:24:32;101568.38;;;25.79
54608;BMP280;40506;37.576;-122.034;2022-07-19T09:26:34;101565.56;;;25.75
54608;BMP280;40506;37.576;-122.034;2022-07-19T09:28:35;101564.00;;;25.74
54608;BMP280;40506;37.576;-122.034;2022-07-19T09:30:45;101575.34;;;25.76
54608;BMP280;40506;37.576;-122.034;2022-07-19T09:32:47;101562.63;;;25.65
54608;BMP280;40506;37.576;-122.034;2022-07-19T09:35:05;101569.50;;;25.59
54608;BMP280;40506;37.576;-122.034;2022-07-19T09:39:08;101580.59;;;25.66
54608;BMP280;40506;37.576;-122.034;2022-07-19T09:41:16;101594.75;;;25.71
54608;BMP280;40506;37.576;-122.034;2022-07-19T09:43:18;101589.66;;;25.70
54608;BMP280;40506;37.576;-122.034;2022-07-19T09:45:19;101558.75;;;25.47
54608;BMP280;40506;37.576;-122.034;2022-07-19T09:47:30;101604.00;;;25.67
54608;BMP280;40506;37.576;-122.034;2022-07-19T09:49:32;101573.69;;;25.53
54608;BMP280;40506;37.576;-122.034;2022-07-19T09:51:37;101590.53;;;25.58
54608;BMP280;40506;37.576;-122.034;2022-07-19T09:53:39;101583.47;;;25.54
54608;BMP280;40506;37.576;-122.034;2022-07-19T09:55:41;101585.00;;;25.55
54608;BMP280;40506;37.576;-122.034;2022-07-19T09:57:46;101587.81;;;25.58
54608;BMP280;40506;37.576;-122.034;2022-07-19T09:59:51;101585.69;;;25.67
54608;BMP280;40506;37.576;-122.034;2022-07-19T10:01:56;101581.66;;;25.61
54608;BMP280;40506;37.576;-122.034;2022-07-19T10:04:03;101585.09;;;25.58
54608;BMP280;40506;37.576;-122.034;2022-07-19T10:06:07;101592.63;;;25.65
54608;BMP280;40506;37.576;-122.034;2022-07-19T10:08:08;101563.41;;;25.46
54608;BMP280;40506;37.576;-122.034;2022-07-19T10:10:12;101591.88;;;25.64
54608;BMP280;40506;37.576;-122.034;2022-07-19T10:12:14;101583.47;;;25.54
54608;BMP280;40506;37.576;-122.034;2022-07-19T10:14:16;101585.41;;;25.53
54608;BMP280;40506;37.576;-122.034;2022-07-19T10:18:43;101577.28;;;25.57
54608;BMP280;40506;37.576;-122.034;2022-07-19T10:20:47;101587.09;;;25.61
54608;BMP280;40506;37.576;-122.034;2022-07-19T10:22:48;101586.75;;;25.63
54608;BMP280;40506;37.576;-122.034;2022-07-19T10:24:53;101570.16;;;25.52
54608;BMP280;40506;37.576;-122.034;2022-07-19T10:26:56;101567.34;;;25.49
54608;BMP280;40506;37.576;-122.034;2022-07-19T10:29:10;101594.50;;;25.61
54608;BMP280;40506;37.576;-122.034;2022-07-19T10:31:29;101588.47;;;25.52
54608;BMP280;40506;37.576;-122.034;2022-07-19T10:33:36;101587.16;;;25.46
54608;BMP280;40506;37.576;-122.034;2022-07-19T10:35:38;101601.22;;;25.48
54608;BMP280;40506;37.576;-122.034;2022-07-19T10:37:41;101580.69;;;25.35
54608;BMP280;40506;37.576;-122.034;2022-07-19T10:39:42;101596.47;;;25.45
54608;BMP280;40506;37.576;-122.034;2022-07-19T10:42:09;101595.72;;;25.44
54608;BMP280;40506;37.576;-122.034;2022-07-19T10:44:10;101604.22;;;25.43
54608;BMP280;40506;37.576;-122.034;2022-07-19T10:46:12;101574.72;;;25.29
54608;BMP280;40506;37.576;-122.034;2022-07-19T10:48:15;101586.94;;;25.35
54608;BMP280;40506;37.576;-122.034;2022-07-19T10:50:16;101575.13;;;25.31
54608;BMP280;40506;37.576;-122.034;2022-07-19T10:54:29;101561.69;;;25.22
54608;BMP280;40506;37.576;-122.034;2022-07-19T10:56:42;101568.75;;;25.23
54608;BMP280;40506;37.576;-122.034;2022-07-19T10:58:56;101571.00;;;25.21
54608;BMP280;40506;37.576;-122.034;2022-07-19T11:00:58;101569.16;;;25.25
54608;BMP280;40506;37.576;-122.034;2022-07-19T11:05:27;101580.59;;;25.31
54608;BMP280;40506;37.576;-122.034;2022-07-19T11:07:29;101537.41;;;24.98
54608;BMP280;40506;37.576;-122.034;2022-07-19T11:09:44;101576.22;;;25.26
54608;BMP280;40506;37.576;-122.034;2022-07-19T11:11:46;101602.91;;;25.37
54608;BMP280;40506;37.576;-122.034;2022-07-19T11:13:51;101587.28;;;25.34
54608;BMP280;40506;37.576;-122.034;2022-07-19T11:15:56;101601.75;;;25.38
54608;BMP280;40506;37.576;-122.034;2022-07-19T11:18:00;101599.81;;;25.38
54608;BMP280;40506;37.576;-122.034;2022-07-19T11:20:10;101599.25;;;25.29